createdAt,value
2018-07-07T00:01:51.838Z,98817.18
2018-07-07T00:04:22.684Z,98815.52
2018-07-07T00:06:53.365Z,98806.53
2018-07-07T00:09:24.519Z,98812.95
2018-07-07T00:11:55.510Z,98814.09
2018-07-07T00:14:26.515Z,98804.16
2018-07-07T00:16:58.742Z,98803.00
2018-07-07T00:19:29.680Z,98808.65
2018-07-07T00:22:00.623Z,98803.84
2018-07-07T00:24:31.450Z,98811.41
2018-07-07T00:27:02.248Z,98815.97
2018-07-07T00:29:33.190Z,98819.66
2018-07-07T00:32:04.050Z,98817.47
2018-07-07T00:34:35.760Z,98817.80
2018-07-07T00:37:07.392Z,98819.41
2018-07-07T00:39:38.214Z,98814.99
2018-07-07T00:42:09.360Z,98815.05
2018-07-07T00:44:40.297Z,98815.41
2018-07-07T00:47:11.072Z,98810.25
2018-07-07T00:49:41.881Z,98812.37
2018-07-07T00:52:13.101Z,98808.89
2018-07-07T00:54:45.007Z,98806.41
2018-07-07T00:57:15.793Z,98808.87
2018-07-07T00:59:46.576Z,98811.52
2018-07-07T01:02:20.113Z,98806.22
2018-07-07T01:04:52.369Z,98819.25
2018-07-07T01:07:24.146Z,98816.55
2018-07-07T01:09:56.069Z,98817.67
2018-07-07T01:12:27.579Z,98822.09
2018-07-07T01:14:58.521Z,98819.58
2018-07-07T01:17:29.564Z,98820.90
2018-07-07T01:20:00.370Z,98828.92
2018-07-07T01:22:32.207Z,98824.53
2018-07-07T01:25:03.254Z,98822.66
2018-07-07T01:27:34.929Z,98824.26
2018-07-07T01:30:05.833Z,98828.22
2018-07-07T01:32:36.784Z,98823.94
2018-07-07T01:35:07.643Z,98826.19
2018-07-07T01:37:38.507Z,98821.89
2018-07-07T01:40:09.503Z,98818.13
2018-07-07T01:42:40.507Z,98815.81
2018-07-07T01:45:12.400Z,98810.20
2018-07-07T01:47:43.562Z,98804.09
2018-07-07T01:50:14.513Z,98805.73
2018-07-07T01:52:45.302Z,98801.28
2018-07-07T01:55:16.111Z,98811.66
2018-07-07T01:57:47.193Z,98813.30
2018-07-07T02:00:18.143Z,98814.86
2018-07-07T02:02:49.876Z,98814.98
2018-07-07T02:05:21.249Z,98814.73
2018-07-07T02:07:52.144Z,98812.97
2018-07-07T02:10:23.089Z,98809.33
2018-07-07T02:12:53.997Z,98806.16
2018-07-07T02:15:24.837Z,98818.48
2018-07-07T02:17:55.545Z,98821.08
2018-07-07T02:20:26.736Z,98820.52
2018-07-07T02:22:59.961Z,98819.70
2018-07-07T02:25:30.756Z,98819.44
2018-07-07T02:28:01.600Z,98822.44
2018-07-07T02:30:32.756Z,98819.53
2018-07-07T02:33:03.438Z,98820.85
2018-07-07T02:35:33.774Z,98817.25
2018-07-07T02:38:04.601Z,98821.94
2018-07-07T02:40:36.526Z,98813.58
2018-07-07T02:43:08.214Z,98816.90
2018-07-07T02:45:39.070Z,98810.49
2018-07-07T02:48:10.109Z,98808.05
2018-07-07T02:50:40.912Z,98804.12
2018-07-07T02:53:11.667Z,98802.59
2018-07-07T02:55:42.668Z,98808.71
2018-07-07T02:58:14.367Z,98810.38
2018-07-07T03:00:45.165Z,98824.09
2018-07-07T03:03:16.214Z,98823.00
2018-07-07T03:05:47.209Z,98825.89
2018-07-07T03:08:17.969Z,98830.33
2018-07-07T03:10:48.798Z,98824.06
2018-07-07T03:13:19.729Z,98826.85
2018-07-07T03:15:51.110Z,98827.06
2018-07-07T03:18:22.710Z,98830.38
2018-07-07T03:20:53.550Z,98834.02
2018-07-07T03:23:24.151Z,98832.23
2018-07-07T03:25:55.168Z,98832.11
2018-07-07T03:28:26.268Z,98834.23
2018-07-07T03:30:58.011Z,98833.13
2018-07-07T03:33:29.493Z,98835.77
2018-07-07T03:36:01.942Z,98835.28
2018-07-07T03:38:32.862Z,98828.48
2018-07-07T03:41:03.840Z,98832.92
2018-07-07T03:43:34.823Z,98838.34
2018-07-07T03:46:05.725Z,98837.61
2018-07-07T03:48:36.767Z,98835.76
2018-07-07T03:51:08.145Z,98835.87
2018-07-07T03:53:40.407Z,98835.87
2018-07-07T03:56:11.933Z,98837.50
2018-07-07T03:58:43.016Z,98840.47
2018-07-07T04:01:14.334Z,98846.48
2018-07-07T04:03:45.436Z,98846.89
2018-07-07T04:06:16.901Z,98853.59
2018-07-07T04:08:47.873Z,98855.33
2018-07-07T04:11:18.712Z,98855.38
2018-07-07T04:13:49.654Z,98856.55
2018-07-07T04:16:20.194Z,98854.27
2018-07-07T04:18:51.868Z,98857.59
2018-07-07T04:21:23.686Z,98850.78
2018-07-07T04:23:54.725Z,98845.20
2018-07-07T04:26:25.580Z,98845.90
2018-07-07T04:28:56.466Z,98851.20
2018-07-07T04:31:27.513Z,98848.03
2018-07-07T04:33:58.777Z,98847.11
2018-07-07T04:36:30.935Z,98859.70
2018-07-07T04:39:03.611Z,98858.68
2018-07-07T04:41:34.885Z,98867.09
2018-07-07T04:44:06.390Z,98855.02
2018-07-07T04:46:38.188Z,98858.09
2018-07-07T04:49:09.029Z,98858.53
2018-07-07T04:51:40.086Z,98861.23
2018-07-07T04:54:12.085Z,98863.68
2018-07-07T04:56:43.737Z,98872.61
2018-07-07T04:59:15.015Z,98872.96
2018-07-07T05:01:45.870Z,98872.86
2018-07-07T05:04:17.079Z,98870.02
2018-07-07T05:06:48.092Z,98876.41
2018-07-07T05:09:18.998Z,98879.28
2018-07-07T05:11:50.662Z,98870.53
2018-07-07T05:14:22.281Z,98874.89
2018-07-07T05:16:53.597Z,98872.25
2018-07-07T05:19:24.819Z,98867.30
2018-07-07T05:21:55.884Z,98867.70
2018-07-07T05:24:27.178Z,98878.80
2018-07-07T05:26:58.965Z,98880.96
2018-07-07T05:29:31.215Z,98883.27
2018-07-07T05:32:03.833Z,98885.25
2018-07-07T05:34:34.973Z,98893.39
2018-07-07T05:37:06.405Z,98890.25
2018-07-07T05:39:37.667Z,98890.59
2018-07-07T05:42:08.785Z,98893.71
2018-07-07T05:44:39.948Z,98901.33
2018-07-07T05:47:12.247Z,98898.02
2018-07-07T05:49:43.609Z,98898.39
2018-07-07T05:52:14.431Z,98894.55
2018-07-07T05:54:45.253Z,98897.38
2018-07-07T05:57:15.917Z,98893.05
2018-07-07T05:59:46.427Z,98897.86
2018-07-07T06:02:17.092Z,98901.16
2018-07-07T06:04:48.415Z,98903.69
2018-07-07T06:07:20.264Z,98900.98
2018-07-07T06:09:50.622Z,98901.28
2018-07-07T06:12:21.357Z,98905.00
2018-07-07T06:14:51.649Z,98903.61
2018-07-07T06:17:23.079Z,98901.85
2018-07-07T06:19:54.224Z,98909.95
2018-07-07T06:22:25.268Z,98907.41
2018-07-07T06:24:58.606Z,98909.95
2018-07-07T06:27:28.877Z,98908.98
2018-07-07T06:29:59.962Z,98915.61
2018-07-07T06:32:31.283Z,98915.08
2018-07-07T06:35:02.034Z,98911.81
2018-07-07T06:37:32.512Z,98909.39
2018-07-07T06:40:03.813Z,98907.79
2018-07-07T06:42:35.231Z,98912.95
2018-07-07T06:45:08.405Z,98919.41
2018-07-07T06:47:39.639Z,98917.22
2018-07-07T06:50:10.754Z,98912.45
2018-07-07T06:52:43.576Z,98914.80
2018-07-07T06:55:16.579Z,98915.50
2018-07-07T06:57:47.703Z,98918.80
2018-07-07T07:00:21.418Z,98918.58
2018-07-07T07:02:53.607Z,98917.92
2018-07-07T07:05:27.295Z,98913.88
2018-07-07T07:07:58.818Z,98912.63
2018-07-07T07:10:33.523Z,98908.16
2018-07-07T07:13:10.093Z,98911.30
2018-07-07T07:15:44.100Z,98914.55
2018-07-07T07:18:15.217Z,98918.34
2018-07-07T07:20:46.538Z,98911.39
2018-07-07T07:23:17.902Z,98914.65
2018-07-07T07:25:49.670Z,98908.11
2018-07-07T07:28:21.433Z,98902.03
2018-07-07T07:30:53.464Z,98908.41
2018-07-07T07:33:24.662Z,98905.05
2018-07-07T07:35:55.908Z,98905.97
2018-07-07T07:38:26.530Z,98903.97
2018-07-07T07:40:57.867Z,98910.06
2018-07-07T07:43:28.719Z,98911.20
2018-07-07T07:45:59.858Z,98908.19
2018-07-07T07:48:32.492Z,98905.78
2018-07-07T07:51:03.346Z,98906.72
2018-07-07T07:53:34.512Z,98907.16
2018-07-07T07:56:05.439Z,98902.72
2018-07-07T07:58:36.414Z,98902.10
2018-07-07T08:01:07.541Z,98905.84
2018-07-07T08:03:38.537Z,98904.91
2018-07-07T08:06:10.794Z,98905.00
2018-07-07T08:08:42.480Z,98906.11
2018-07-07T08:11:13.802Z,98904.72
2018-07-07T08:13:44.601Z,98905.30
2018-07-07T08:16:16.592Z,98907.28
2018-07-07T08:18:48.780Z,98911.56
2018-07-07T08:21:22.533Z,98903.23
2018-07-07T08:23:54.423Z,98907.03
2018-07-07T08:26:26.580Z,98903.33
2018-07-07T08:28:57.820Z,98901.72
2018-07-07T08:31:33.151Z,98907.77
2018-07-07T08:34:04.566Z,98910.45
2018-07-07T08:36:36.476Z,98909.40
2018-07-07T08:39:08.355Z,98907.49
2018-07-07T08:41:39.215Z,98903.95
2018-07-07T08:44:10.711Z,98908.59
2018-07-07T08:46:42.232Z,98913.75
2018-07-07T08:49:13.503Z,98911.59
2018-07-07T08:51:44.757Z,98917.56
2018-07-07T08:54:17.703Z,98913.44
2018-07-07T08:56:49.278Z,98917.98
2018-07-07T08:59:20.488Z,98921.73
2018-07-07T09:01:52.917Z,98922.51
2018-07-07T09:04:24.415Z,98923.33
2018-07-07T09:06:57.087Z,98919.04
2018-07-07T09:09:28.893Z,98922.69
2018-07-07T09:12:02.165Z,98913.61
2018-07-07T09:14:33.401Z,98921.94
2018-07-07T09:17:04.432Z,98925.34
2018-07-07T09:19:35.956Z,98929.03
2018-07-07T09:22:07.471Z,98926.20
2018-07-07T09:24:38.745Z,98931.20
2018-07-07T09:27:10.836Z,98936.80
2018-07-07T09:29:42.982Z,98930.05
2018-07-07T09:32:14.544Z,98927.77
2018-07-07T09:34:46.479Z,98932.89
2018-07-07T09:37:17.843Z,98924.07
2018-07-07T09:39:48.815Z,98935.52
2018-07-07T09:42:19.906Z,98927.37
2018-07-07T09:44:51.410Z,98924.94
2018-07-07T09:47:23.670Z,98931.06
2018-07-07T09:49:55.473Z,98937.42
2018-07-07T09:52:27.180Z,98930.60
2018-07-07T09:54:58.409Z,98939.13
2018-07-07T09:57:30.073Z,98936.29
2018-07-07T10:00:00.679Z,98927.36
2018-07-07T10:02:32.349Z,98922.56
2018-07-07T10:05:04.568Z,98924.92
2018-07-07T10:07:35.750Z,98934.05
2018-07-07T10:10:06.947Z,98925.09
2018-07-07T10:12:38.525Z,98917.97
2018-07-07T10:15:10.251Z,98925.16
2018-07-07T10:17:41.291Z,98918.36
2018-07-07T10:20:13.913Z,98907.97
2018-07-07T10:22:47.888Z,98919.37
2018-07-07T10:25:22.690Z,98918.02
2018-07-07T10:27:55.432Z,98925.74
2018-07-07T10:30:27.937Z,98921.39
2018-07-07T10:33:01.782Z,98918.36
2018-07-07T10:35:35.953Z,98915.88
2018-07-07T10:38:07.202Z,98917.53
2018-07-07T10:40:38.158Z,98916.52
2018-07-07T10:43:09.360Z,98913.77
2018-07-07T10:45:40.666Z,98906.57
2018-07-07T10:48:12.045Z,98901.63
2018-07-07T10:50:44.380Z,98898.80
2018-07-07T10:53:16.120Z,98893.50
2018-07-07T10:55:48.649Z,98893.14
2018-07-07T10:58:22.116Z,98886.78
2018-07-07T11:00:55.618Z,98890.81
2018-07-07T11:03:27.536Z,98887.98
2018-07-07T11:05:59.910Z,98879.80
2018-07-07T11:08:33.733Z,98881.39
2018-07-07T11:11:04.355Z,98882.58
2018-07-07T11:13:37.859Z,98878.88
2018-07-07T11:16:09.693Z,98882.63
2018-07-07T11:18:41.617Z,98872.02
2018-07-07T11:21:16.514Z,98872.36
2018-07-07T11:23:48.659Z,98864.02
2018-07-07T11:26:19.776Z,98863.02
2018-07-07T11:28:50.908Z,98860.08
2018-07-07T11:31:21.947Z,98856.37
2018-07-07T11:33:52.867Z,98844.75
2018-07-07T11:36:25.032Z,98844.03
2018-07-07T11:38:57.106Z,98845.83
2018-07-07T11:41:28.523Z,98838.23
2018-07-07T11:44:09.494Z,98837.77
2018-07-07T11:46:43.144Z,98825.73
2018-07-07T11:49:15.905Z,98819.08
2018-07-07T11:51:49.965Z,98818.80
2018-07-07T11:54:22.377Z,98813.59
2018-07-07T11:56:53.675Z,98812.42
2018-07-07T11:59:27.067Z,98809.50
2018-07-07T12:01:58.440Z,98803.64
2018-07-07T12:04:31.574Z,98807.98
2018-07-07T12:07:03.354Z,98793.33
2018-07-07T12:09:34.782Z,98784.13
2018-07-07T12:12:09.085Z,98788.13
2018-07-07T12:14:40.557Z,98788.31
2018-07-07T12:17:11.724Z,98791.66
2018-07-07T12:19:43.788Z,98790.80
2018-07-07T12:22:15.534Z,98791.70
2018-07-07T12:24:46.816Z,98783.83
2018-07-07T12:27:19.385Z,98792.47
2018-07-07T12:29:50.257Z,98785.84
2018-07-07T12:32:21.142Z,98780.94
2018-07-07T12:34:53.969Z,98780.06
2018-07-07T12:37:26.380Z,98777.99
2018-07-07T12:39:57.970Z,98777.66
2018-07-07T12:42:29.678Z,98775.68
2018-07-07T12:45:00.581Z,98775.31
2018-07-07T12:47:31.674Z,98775.20
2018-07-07T12:50:03.263Z,98765.23
2018-07-07T12:52:34.316Z,98767.97
2018-07-07T12:55:06.587Z,98770.87
2018-07-07T12:57:37.731Z,98772.02
2018-07-07T13:00:08.790Z,98764.02
2018-07-07T13:02:40.384Z,98760.01
2018-07-07T13:05:11.371Z,98763.84
2018-07-07T13:07:42.421Z,98752.20
2018-07-07T13:10:14.276Z,98747.75
2018-07-07T13:12:46.805Z,98749.56
2018-07-07T13:15:18.085Z,98745.36
2018-07-07T13:17:49.384Z,98743.60
2018-07-07T13:20:20.987Z,98722.16
2018-07-07T13:22:52.214Z,98738.42
2018-07-07T13:25:22.975Z,98741.94
2018-07-07T13:27:56.433Z,98741.66
2018-07-07T13:30:28.886Z,98741.56
2018-07-07T13:33:02.014Z,98743.45
2018-07-07T13:35:32.947Z,98740.14
2018-07-07T13:38:05.424Z,98736.56
2018-07-07T13:40:40.570Z,98737.55
2018-07-07T13:43:14.020Z,98727.59
2018-07-07T13:45:46.976Z,98733.00
2018-07-07T13:48:18.590Z,98731.08
2018-07-07T13:50:50.507Z,98729.72
2018-07-07T13:53:22.102Z,98729.38
2018-07-07T13:55:54.117Z,98729.43
2018-07-07T13:58:26.411Z,98733.72
2018-07-07T14:00:59.785Z,98729.65
2018-07-07T14:03:31.910Z,98732.07
2018-07-07T14:06:04.753Z,98733.17
2018-07-07T14:08:35.221Z,98737.78
2018-07-07T14:11:06.883Z,98731.02
2018-07-07T14:13:38.634Z,98733.09
2018-07-07T14:16:11.534Z,98738.02
2018-07-07T14:18:42.728Z,98727.73
2018-07-07T14:21:13.918Z,98725.83
2018-07-07T14:23:45.533Z,98721.39
2018-07-07T14:26:17.017Z,98720.49
2018-07-07T14:28:48.293Z,98724.41
2018-07-07T14:31:20.197Z,98727.02
2018-07-07T14:33:53.445Z,98731.67
2018-07-07T14:36:24.701Z,98738.92
2018-07-07T14:38:56.285Z,98740.00
2018-07-07T14:41:29.896Z,98746.16
2018-07-07T14:44:05.102Z,98742.94
2018-07-07T14:46:37.922Z,98749.40
2018-07-07T14:49:10.738Z,98749.93
2018-07-07T14:51:42.004Z,98754.41
2018-07-07T14:54:15.281Z,98753.94
2018-07-07T14:56:46.684Z,98762.45
2018-07-07T14:59:18.307Z,98752.80
2018-07-07T15:01:50.806Z,98755.14
2018-07-07T15:04:22.011Z,98749.39
2018-07-07T15:06:53.135Z,98745.61
2018-07-07T15:09:23.511Z,98741.25
2018-07-07T15:11:58.443Z,98737.41
2018-07-07T15:14:29.371Z,98748.73
2018-07-07T15:17:03.392Z,98750.95
2018-07-07T15:19:34.603Z,98753.33
2018-07-07T15:22:05.719Z,98750.05
2018-07-07T15:24:41.398Z,98751.97
2018-07-07T15:27:14.011Z,98747.25
2018-07-07T15:29:51.802Z,98746.56
2018-07-07T15:32:23.867Z,98750.34
2018-07-07T15:34:54.826Z,98767.75
2018-07-07T15:37:26.944Z,98770.39
2018-07-07T15:40:01.632Z,98769.05
2018-07-07T15:42:34.411Z,98784.44
2018-07-07T15:45:06.657Z,98788.38
2018-07-07T15:47:38.344Z,98787.89
2018-07-07T15:50:10.513Z,98790.12
2018-07-07T15:52:41.651Z,98790.95
2018-07-07T15:55:13.359Z,98796.09
2018-07-07T15:57:44.639Z,98807.73
2018-07-07T16:00:16.693Z,98823.89
2018-07-07T16:02:47.933Z,98834.98
2018-07-07T16:05:19.595Z,98840.28
2018-07-07T16:07:50.642Z,98836.78
2018-07-07T16:10:22.163Z,98832.79
2018-07-07T16:12:54.233Z,98829.49
2018-07-07T16:15:24.907Z,98827.33
2018-07-07T16:17:57.460Z,98817.70
2018-07-07T16:20:28.551Z,98802.86
2018-07-07T16:22:59.197Z,98800.88
2018-07-07T16:25:30.718Z,98807.06
2018-07-07T16:28:02.217Z,98821.67
2018-07-07T16:30:33.266Z,98845.83
2018-07-07T16:33:05.596Z,98863.87
2018-07-07T16:35:37.131Z,98869.73
2018-07-07T16:38:08.434Z,98872.11
2018-07-07T16:40:39.596Z,98870.91
2018-07-07T16:43:11.214Z,98876.03
2018-07-07T16:45:42.205Z,98867.14
2018-07-07T16:48:13.301Z,98823.18
2018-07-07T16:50:44.075Z,98809.72
2018-07-07T16:53:16.982Z,98821.57
2018-07-07T16:55:49.020Z,98827.84
2018-07-07T16:58:21.576Z,98816.45
2018-07-07T17:00:53.371Z,98802.66
2018-07-07T17:03:25.911Z,98792.95
2018-07-07T17:05:59.912Z,98803.30
2018-07-07T17:08:33.308Z,98820.28
2018-07-07T17:11:06.770Z,98823.17
2018-07-07T17:13:41.620Z,98822.09
2018-07-07T17:16:12.843Z,98816.31
2018-07-07T17:18:44.318Z,98809.95
2018-07-07T17:21:16.299Z,98798.23
2018-07-07T17:23:48.497Z,98796.48
2018-07-07T17:26:19.794Z,98782.77
2018-07-07T17:28:51.295Z,98786.08
2018-07-07T17:31:23.533Z,98782.98
2018-07-07T17:33:57.181Z,98788.31
2018-07-07T17:36:29.560Z,98790.94
2018-07-07T17:39:02.403Z,98785.06
2018-07-07T17:41:34.069Z,98789.98
2018-07-07T17:44:06.117Z,98787.23
2018-07-07T17:46:38.180Z,98788.27
2018-07-07T17:49:10.002Z,98795.41
2018-07-07T17:51:41.144Z,98790.86
2018-07-07T17:54:12.837Z,98790.92
2018-07-07T17:56:45.274Z,98788.80
2018-07-07T17:59:19.042Z,98782.30
2018-07-07T18:01:53.562Z,98783.92
2018-07-07T18:04:26.414Z,98783.68
2018-07-07T18:06:57.964Z,98781.30
2018-07-07T18:09:29.796Z,98778.59
2018-07-07T18:12:01.558Z,98772.70
2018-07-07T18:14:32.797Z,98772.32
2018-07-07T18:17:04.419Z,98777.55
2018-07-07T18:19:37.935Z,98776.09
2018-07-07T18:22:10.210Z,98773.22
2018-07-07T18:24:40.939Z,98778.55
2018-07-07T18:27:13.628Z,98774.95
2018-07-07T18:29:45.225Z,98782.53
2018-07-07T18:32:15.950Z,98780.56
2018-07-07T18:34:47.767Z,98780.89
2018-07-07T18:37:19.033Z,98778.14
2018-07-07T18:39:50.082Z,98775.59
2018-07-07T18:42:20.497Z,98772.93
2018-07-07T18:44:52.518Z,98772.77
2018-07-07T18:47:23.671Z,98769.81
2018-07-07T18:49:54.656Z,98772.22
2018-07-07T18:52:26.092Z,98772.66
2018-07-07T18:54:58.078Z,98774.39
2018-07-07T18:57:30.503Z,98785.12
2018-07-07T19:00:02.445Z,98788.84
2018-07-07T19:02:34.251Z,98788.09
2018-07-07T19:05:05.395Z,98787.63
2018-07-07T19:07:36.562Z,98793.83
2018-07-07T19:10:08.724Z,98801.84
2018-07-07T19:12:39.436Z,98807.04
2018-07-07T19:15:16.010Z,98817.06
2018-07-07T19:17:48.486Z,98816.78
2018-07-07T19:20:25.219Z,98824.14
2018-07-07T19:23:01.654Z,98832.81
2018-07-07T19:25:38.167Z,98829.19
2018-07-07T19:28:09.759Z,98834.50
2018-07-07T19:30:41.149Z,98835.73
2018-07-07T19:33:17.850Z,98840.72
2018-07-07T19:35:53.443Z,98838.42
2018-07-07T19:38:25.304Z,98848.58
2018-07-07T19:40:57.076Z,98851.59
2018-07-07T19:43:28.330Z,98861.39
2018-07-07T19:45:59.910Z,98863.56
2018-07-07T19:48:31.078Z,98859.28
2018-07-07T19:51:02.174Z,98859.61
2018-07-07T19:53:33.387Z,98860.64
2018-07-07T19:56:06.273Z,98865.97
2018-07-07T19:58:38.642Z,98860.01
2018-07-07T20:01:11.052Z,98870.65
2018-07-07T20:03:42.106Z,98864.66
2018-07-07T20:06:13.121Z,98869.30
2018-07-07T20:08:44.298Z,98862.52
2018-07-07T20:11:16.805Z,98868.50
2018-07-07T20:13:48.605Z,98871.97
2018-07-07T20:16:22.899Z,98870.81
2018-07-07T20:19:17.578Z,98868.67
2018-07-07T20:21:55.624Z,98867.84
2018-07-07T20:24:32.633Z,98871.34
2018-07-07T20:27:10.529Z,98882.94
2018-07-07T20:29:41.635Z,98878.64
2018-07-07T20:32:18.454Z,98883.29
2018-07-07T20:34:50.963Z,98886.12
2018-07-07T20:37:22.267Z,98882.95
2018-07-07T20:39:54.445Z,98881.45
2018-07-07T20:42:27.537Z,98890.73
2018-07-07T20:45:03.232Z,98887.94
2018-07-07T20:47:33.995Z,98884.77
2018-07-07T20:50:06.096Z,98886.58
2018-07-07T20:52:38.407Z,98892.55
2018-07-07T20:55:10.402Z,98886.08
2018-07-07T20:57:41.705Z,98891.55
2018-07-07T21:00:12.185Z,98896.47
2018-07-07T21:02:43.679Z,98894.79
2018-07-07T21:05:14.742Z,98898.61
2018-07-07T21:07:45.926Z,98892.11
2018-07-07T21:10:17.169Z,98892.77
2018-07-07T21:12:49.118Z,98895.11
2018-07-07T21:15:21.082Z,98893.78
2018-07-07T21:17:51.924Z,98899.39
2018-07-07T21:20:23.034Z,98901.02
2018-07-07T21:22:54.711Z,98899.67
2018-07-07T21:25:26.000Z,98897.86
2018-07-07T21:27:57.107Z,98904.66
2018-07-07T21:30:28.056Z,98904.16
2018-07-07T21:33:00.530Z,98904.81
2018-07-07T21:35:31.763Z,98902.48
2018-07-07T21:38:02.682Z,98902.30
2018-07-07T21:40:33.524Z,98900.59
2018-07-07T21:43:04.048Z,98904.48
2018-07-07T21:45:34.606Z,98901.48
2018-07-07T21:48:06.743Z,98900.38
2018-07-07T21:50:39.286Z,98901.66
2018-07-07T21:53:10.314Z,98897.02
2018-07-07T21:55:41.196Z,98895.34
2018-07-07T21:58:17.096Z,98894.71
2018-07-07T22:01:09.451Z,98895.70
2018-07-07T22:03:45.898Z,98895.19
2018-07-07T22:06:25.386Z,98899.16
2018-07-07T22:08:57.260Z,98894.16
2018-07-07T22:11:28.284Z,98890.00
2018-07-07T22:13:59.244Z,98886.38
2018-07-07T22:16:30.158Z,98883.73
2018-07-07T22:19:01.429Z,98884.06
2018-07-07T22:22:11.673Z,98890.00
2018-07-07T22:24:44.010Z,98890.33
2018-07-07T22:27:16.615Z,98892.98
2018-07-07T22:29:47.588Z,98896.41
2018-07-07T22:32:22.616Z,98900.86
2018-07-07T22:34:53.879Z,98896.87
2018-07-07T22:37:25.037Z,98890.20
2018-07-07T22:39:57.019Z,98894.49
2018-07-07T22:42:29.290Z,98900.27
2018-07-07T22:45:00.157Z,98898.75
2018-07-07T22:47:31.712Z,98895.27
2018-07-07T22:50:02.954Z,98902.88
2018-07-07T22:52:35.251Z,98901.37
2018-07-07T22:55:06.532Z,98890.41
2018-07-07T22:57:37.719Z,98895.31
2018-07-07T23:00:10.724Z,98892.89
2018-07-07T23:02:41.866Z,98888.89
2018-07-07T23:05:12.837Z,98887.54
2018-07-07T23:07:44.453Z,98883.38
2018-07-07T23:10:16.607Z,98889.12
2018-07-07T23:12:47.639Z,98885.44
2018-07-07T23:15:18.746Z,98884.08
2018-07-07T23:17:49.779Z,98886.88
2018-07-07T23:20:20.672Z,98884.05
2018-07-07T23:22:53.542Z,98882.37
2018-07-07T23:25:24.645Z,98891.30
2018-07-07T23:27:55.527Z,98887.78
2018-07-07T23:30:26.135Z,98882.94
2018-07-07T23:32:58.173Z,98879.58
2018-07-07T23:35:29.431Z,98883.02
2018-07-07T23:38:00.392Z,98891.42
2018-07-07T23:40:31.574Z,98885.62
2018-07-07T23:43:02.587Z,98877.66
2018-07-07T23:45:33.383Z,98881.58
2018-07-07T23:48:04.326Z,98879.38
2018-07-07T23:50:35.814Z,98882.85
2018-07-07T23:53:07.455Z,98876.41
2018-07-07T23:55:38.040Z,98878.66
2018-07-07T23:58:08.956Z,98877.69
